createdAt,value
2017-05-16T00:00:17.426Z,12
2017-05-16T00:01:30.220Z,12
2017-05-16T00:02:43.012Z,12
2017-05-16T00:03:55.802Z,12
2017-05-16T00:05:08.105Z,4
2017-05-16T00:06:20.896Z,4
2017-05-16T00:07:33.686Z,12
2017-05-16T00:08:46.471Z,16
2017-05-16T00:09:58.770Z,12
2017-05-16T00:11:11.855Z,12
2017-05-16T00:12:23.681Z,12
2017-05-16T00:13:36.492Z,12
2017-05-16T00:14:48.796Z,12
2017-05-16T00:16:01.583Z,4
2017-05-16T00:17:14.569Z,4
2017-05-16T00:18:27.367Z,4
2017-05-16T00:19:40.232Z,16
2017-05-16T00:20:53.023Z,12
2017-05-16T00:22:06.116Z,12
2017-05-16T00:23:18.442Z,4
2017-05-16T00:24:31.225Z,16
2017-05-16T00:25:44.008Z,16
2017-05-16T00:26:56.792Z,12
2017-05-16T00:28:09.577Z,4
2017-05-16T00:29:22.367Z,4
2017-05-16T00:30:35.151Z,12
2017-05-16T00:31:47.936Z,12
2017-05-16T00:33:00.251Z,12
2017-05-16T00:34:13.100Z,12
2017-05-16T00:35:25.886Z,12
2017-05-16T00:36:38.724Z,8
2017-05-16T00:37:51.521Z,4
2017-05-16T00:39:04.508Z,4
2017-05-16T00:40:16.805Z,4
2017-05-16T00:41:29.587Z,16
2017-05-16T00:42:41.894Z,16
2017-05-16T00:43:54.724Z,12
2017-05-16T00:45:07.507Z,12
2017-05-16T00:46:19.810Z,16
2017-05-16T00:47:32.122Z,12
2017-05-16T00:48:44.917Z,12
2017-05-16T00:49:57.906Z,4
2017-05-16T00:51:10.689Z,12
2017-05-16T00:52:23.012Z,12
2017-05-16T00:53:35.795Z,12
2017-05-16T00:54:48.579Z,12
2017-05-16T00:56:00.879Z,12
2017-05-16T00:57:13.660Z,4
2017-05-16T00:58:26.460Z,12
2017-05-16T00:59:39.259Z,12
2017-05-16T01:00:52.044Z,12
2017-05-16T01:02:04.829Z,4
2017-05-16T01:03:17.620Z,12
2017-05-16T01:04:30.411Z,16
2017-05-16T01:05:43.004Z,12
2017-05-16T01:06:55.929Z,4
2017-05-16T01:08:08.856Z,12
2017-05-16T01:09:21.305Z,12
2017-05-16T01:10:34.234Z,12
2017-05-16T01:11:47.356Z,12
2017-05-16T01:13:00.283Z,12
2017-05-16T01:14:13.214Z,12
2017-05-16T01:15:26.144Z,4
2017-05-16T01:16:39.319Z,4
2017-05-16T01:17:52.246Z,16
2017-05-16T01:19:05.178Z,12
2017-05-16T01:20:17.617Z,12
2017-05-16T01:21:30.546Z,12
2017-05-16T01:22:43.231Z,12
2017-05-16T01:23:56.165Z,12
2017-05-16T01:25:08.601Z,16
2017-05-16T01:26:21.034Z,12
2017-05-16T01:27:34.206Z,12
2017-05-16T01:28:47.131Z,12
2017-05-16T01:30:00.081Z,12
2017-05-16T01:31:13.018Z,12
2017-05-16T01:32:25.647Z,12
2017-05-16T01:33:38.576Z,4
2017-05-16T01:34:51.512Z,12
2017-05-16T01:36:04.444Z,12
2017-05-16T01:37:16.876Z,12
2017-05-16T01:38:29.560Z,12
2017-05-16T01:39:41.515Z,12
2017-05-16T01:40:54.446Z,12
2017-05-16T01:42:07.271Z,4
2017-05-16T01:43:19.619Z,12
2017-05-16T01:44:46.477Z,12
2017-05-16T01:45:59.259Z,4
2017-05-16T01:47:12.049Z,16
2017-05-16T01:48:24.827Z,16
2017-05-16T01:49:37.621Z,12
2017-05-16T01:50:50.411Z,12
2017-05-16T01:52:02.721Z,12
2017-05-16T01:53:15.026Z,4
2017-05-16T01:54:27.809Z,4
2017-05-16T01:55:40.612Z,12
2017-05-16T01:56:53.398Z,12
2017-05-16T01:58:06.189Z,12
2017-05-16T01:59:18.499Z,12
2017-05-16T02:00:31.004Z,12
2017-05-16T02:01:43.316Z,12
2017-05-16T02:02:56.107Z,4
2017-05-16T02:04:08.954Z,12
2017-05-16T02:05:21.261Z,12
2017-05-16T02:06:34.045Z,12
2017-05-16T02:07:46.903Z,12
2017-05-16T02:08:59.705Z,4
2017-05-16T02:10:12.545Z,16
2017-05-16T02:11:25.344Z,16
2017-05-16T02:12:38.137Z,12
2017-05-16T02:13:50.925Z,12
2017-05-16T02:15:03.717Z,12
2017-05-16T02:16:16.798Z,8
2017-05-16T02:17:29.597Z,12
2017-05-16T02:18:41.906Z,4
2017-05-16T02:19:54.716Z,4
2017-05-16T02:21:07.519Z,12
2017-05-16T02:22:20.026Z,12
2017-05-16T02:23:32.818Z,12
2017-05-16T02:24:45.603Z,4
2017-05-16T02:25:58.386Z,16
2017-05-16T02:27:11.375Z,16
2017-05-16T02:28:24.166Z,12
2017-05-16T02:29:36.957Z,4
2017-05-16T02:30:48.774Z,12
2017-05-16T02:32:01.560Z,12
2017-05-16T02:33:14.548Z,12
2017-05-16T02:34:27.328Z,16
2017-05-16T02:35:40.129Z,12
2017-05-16T02:36:52.914Z,12
2017-05-16T02:38:05.709Z,12
2017-05-16T02:39:18.498Z,12
2017-05-16T02:40:31.326Z,12
2017-05-16T02:41:44.116Z,12
2017-05-16T02:42:56.922Z,12
2017-05-16T02:44:09.710Z,4
2017-05-16T02:45:22.495Z,4
2017-05-16T02:46:35.276Z,12
2017-05-16T02:47:48.065Z,16
2017-05-16T02:49:01.059Z,12
2017-05-16T02:50:13.841Z,12
2017-05-16T02:51:26.628Z,12
2017-05-16T02:52:39.419Z,8
2017-05-16T02:53:52.211Z,4
2017-05-16T02:55:05.197Z,4
2017-05-16T02:56:17.978Z,4
2017-05-16T02:57:30.761Z,12
2017-05-16T02:58:43.546Z,12
2017-05-16T02:59:56.533Z,12
2017-05-16T03:01:09.423Z,12
2017-05-16T03:02:22.340Z,4
2017-05-16T03:03:35.269Z,16
2017-05-16T03:04:48.190Z,16
2017-05-16T03:06:01.315Z,12
2017-05-16T03:07:13.738Z,12
2017-05-16T03:08:26.666Z,12
2017-05-16T03:09:39.095Z,12
2017-05-16T03:10:51.522Z,12
2017-05-16T03:12:04.437Z,12
2017-05-16T03:13:17.356Z,12
2017-05-16T03:14:30.319Z,4
2017-05-16T03:17:09.939Z,12
2017-05-16T03:18:22.363Z,12
2017-05-16T03:19:34.796Z,12
2017-05-16T03:20:47.712Z,12
2017-05-16T03:22:00.933Z,16
2017-05-16T03:23:13.850Z,12
2017-05-16T03:24:26.767Z,12
2017-05-16T03:25:39.702Z,12
2017-05-16T03:26:52.621Z,12
2017-05-16T03:28:05.570Z,4
2017-05-16T03:29:18.631Z,4
2017-05-16T03:30:31.596Z,4
2017-05-16T03:31:44.565Z,12
2017-05-16T03:32:56.993Z,12
2017-05-16T03:34:09.914Z,8
2017-05-16T03:35:22.347Z,12
2017-05-16T03:36:34.832Z,4
2017-05-16T03:37:47.752Z,4
2017-05-16T03:39:00.883Z,16
2017-05-16T03:40:13.803Z,16
2017-05-16T03:41:26.722Z,16
2017-05-16T03:42:39.642Z,12
2017-05-16T03:43:52.763Z,12
2017-05-16T03:45:05.659Z,12
2017-05-16T03:46:17.966Z,12
2017-05-16T03:47:30.749Z,12
2017-05-16T03:48:43.527Z,16
2017-05-16T03:49:55.834Z,12
2017-05-16T03:51:08.625Z,12
2017-05-16T03:52:21.403Z,4
2017-05-16T03:53:33.707Z,12
2017-05-16T03:54:46.693Z,12
2017-05-16T03:55:59.477Z,12
2017-05-16T03:57:12.261Z,12
2017-05-16T03:58:25.051Z,16
2017-05-16T03:59:37.831Z,12
2017-05-16T04:00:50.610Z,12
2017-05-16T04:02:03.401Z,8
2017-05-16T04:03:16.186Z,12
2017-05-16T04:04:28.969Z,12
2017-05-16T04:05:55.823Z,12
2017-05-16T04:07:08.605Z,4
2017-05-16T04:08:21.387Z,4
2017-05-16T04:09:34.163Z,4
2017-05-16T04:10:46.766Z,4
2017-05-16T04:11:59.546Z,12
2017-05-16T04:13:12.325Z,16
2017-05-16T04:14:25.107Z,12
2017-05-16T04:15:37.893Z,12
2017-05-16T04:16:50.879Z,12
2017-05-16T04:18:03.655Z,12
2017-05-16T04:19:16.431Z,12
2017-05-16T04:20:28.724Z,12
2017-05-16T04:21:41.508Z,8
2017-05-16T04:22:54.287Z,12
2017-05-16T04:24:07.069Z,12
2017-05-16T04:25:19.373Z,4
2017-05-16T04:26:31.671Z,4
2017-05-16T04:27:44.449Z,4
2017-05-16T04:28:56.753Z,12
2017-05-16T04:30:09.534Z,16
2017-05-16T04:31:21.834Z,16
2017-05-16T04:32:34.817Z,12
2017-05-16T04:33:47.623Z,12
2017-05-16T04:35:00.405Z,12
2017-05-16T04:36:13.185Z,12
2017-05-16T04:37:25.490Z,12
2017-05-16T04:38:37.789Z,12
2017-05-16T04:39:50.569Z,12
2017-05-16T04:41:02.865Z,12
2017-05-16T04:42:15.653Z,4
2017-05-16T04:43:28.433Z,16
2017-05-16T04:44:41.215Z,16
2017-05-16T04:45:53.999Z,12
2017-05-16T04:47:06.777Z,4
2017-05-16T04:48:19.553Z,12
2017-05-16T04:49:32.630Z,12
2017-05-16T04:50:45.411Z,12
2017-05-16T04:51:58.195Z,12
2017-05-16T04:53:10.489Z,12
2017-05-16T04:54:22.984Z,4
2017-05-16T04:55:35.287Z,4
2017-05-16T04:56:48.066Z,12
2017-05-16T04:58:00.850Z,16
2017-05-16T04:59:13.632Z,12
2017-05-16T05:00:26.407Z,12
2017-05-16T05:01:39.186Z,12
2017-05-16T05:02:51.486Z,12
2017-05-16T05:04:04.271Z,12
2017-05-16T05:05:16.090Z,12
2017-05-16T05:06:28.870Z,12
2017-05-16T05:07:41.166Z,4
2017-05-16T05:08:53.942Z,12
2017-05-16T05:10:06.728Z,16
2017-05-16T05:11:18.543Z,12
2017-05-16T05:12:30.849Z,12
2017-05-16T05:13:43.148Z,12
2017-05-16T05:14:55.928Z,12
2017-05-16T05:16:08.818Z,8
2017-05-16T05:17:21.738Z,8
2017-05-16T05:18:34.164Z,4
2017-05-16T05:19:46.691Z,4
2017-05-16T05:20:59.749Z,4
2017-05-16T05:22:26.835Z,12
2017-05-16T05:23:39.892Z,12
2017-05-16T05:24:52.451Z,12
2017-05-16T05:26:05.211Z,12
2017-05-16T05:27:17.771Z,12
2017-05-16T05:28:30.832Z,12
2017-05-16T05:29:43.892Z,12
2017-05-16T05:30:56.955Z,12
2017-05-16T05:32:09.512Z,12
2017-05-16T05:33:22.070Z,12
2017-05-16T05:34:35.132Z,12
2017-05-16T05:35:48.185Z,12
2017-05-16T05:37:01.246Z,4
2017-05-16T05:38:14.308Z,12
2017-05-16T05:39:26.878Z,12
2017-05-16T05:40:38.945Z,12
2017-05-16T05:41:52.002Z,12
2017-05-16T05:43:04.868Z,12
2017-05-16T05:44:17.924Z,4
2017-05-16T05:45:30.481Z,4
2017-05-16T05:46:43.041Z,16
2017-05-16T05:47:56.098Z,16
2017-05-16T05:49:08.653Z,12
2017-05-16T05:50:21.711Z,4
2017-05-16T05:51:34.269Z,12
2017-05-16T05:52:47.333Z,16
2017-05-16T05:54:00.394Z,12
2017-05-16T05:55:12.855Z,8
2017-05-16T05:56:25.779Z,12
2017-05-16T05:57:38.693Z,12
2017-05-16T05:58:51.608Z,12
2017-05-16T06:00:04.527Z,12
2017-05-16T06:01:16.932Z,4
2017-05-16T06:02:29.828Z,12
2017-05-16T06:03:42.740Z,12
2017-05-16T06:04:55.841Z,12
2017-05-16T06:06:08.255Z,12
2017-05-16T06:07:20.659Z,12
2017-05-16T06:08:33.551Z,8
2017-05-16T06:09:46.448Z,16
2017-05-16T06:10:59.644Z,12
2017-05-16T06:12:12.051Z,4
2017-05-16T06:13:24.460Z,4
2017-05-16T06:14:36.865Z,4
2017-05-16T06:15:49.964Z,12
2017-05-16T06:17:02.864Z,16
2017-05-16T06:18:15.758Z,12
2017-05-16T06:19:28.164Z,12
2017-05-16T06:20:41.058Z,12
2017-05-16T06:21:53.764Z,12
2017-05-16T06:23:06.665Z,12
2017-05-16T06:24:18.090Z,4
2017-05-16T06:25:30.986Z,4
2017-05-16T06:26:43.887Z,4
2017-05-16T06:27:56.783Z,16
2017-05-16T06:29:09.189Z,12
2017-05-16T06:30:21.595Z,12
2017-05-16T06:31:34.496Z,12
2017-05-16T06:32:47.595Z,4
2017-05-16T06:34:00.496Z,4
2017-05-16T06:35:12.905Z,4
2017-05-16T06:36:25.799Z,12
2017-05-16T06:37:38.518Z,16
2017-05-16T06:38:51.416Z,12
2017-05-16T06:40:03.823Z,12
2017-05-16T06:41:16.248Z,12
2017-05-16T06:42:29.142Z,12
2017-05-16T06:43:42.349Z,12
2017-05-16T06:44:55.252Z,4
2017-05-16T06:46:08.167Z,4
2017-05-16T06:47:20.590Z,12
2017-05-16T06:48:33.509Z,12
2017-05-16T06:49:45.936Z,12
2017-05-16T06:50:58.852Z,12
2017-05-16T06:52:11.773Z,4
2017-05-16T06:53:24.689Z,12
2017-05-16T06:54:37.603Z,12
2017-05-16T06:55:50.030Z,12
2017-05-16T06:57:02.455Z,12
2017-05-16T06:58:15.371Z,12
2017-05-16T06:59:27.505Z,12
2017-05-16T07:00:40.420Z,12
2017-05-16T07:01:53.339Z,12
2017-05-16T07:03:05.765Z,12
2017-05-16T07:04:18.184Z,12
2017-05-16T07:05:31.108Z,12
2017-05-16T07:06:43.536Z,12
2017-05-16T07:07:56.458Z,12
2017-05-16T07:09:08.889Z,12
2017-05-16T07:10:22.116Z,4
2017-05-16T07:11:35.049Z,4
2017-05-16T07:12:47.970Z,16
2017-05-16T07:14:00.392Z,16
2017-05-16T07:15:13.310Z,12
2017-05-16T07:16:25.248Z,4
2017-05-16T07:17:38.164Z,12
2017-05-16T07:18:51.082Z,12
2017-05-16T07:20:03.998Z,4
2017-05-16T07:21:16.627Z,16
2017-05-16T07:22:29.551Z,12
2017-05-16T07:23:42.470Z,12
2017-05-16T07:24:55.392Z,12
2017-05-16T07:26:08.310Z,4
2017-05-16T07:27:21.531Z,12
2017-05-16T07:28:34.446Z,16
2017-05-16T07:29:46.873Z,12
2017-05-16T07:30:59.688Z,12
2017-05-16T07:32:11.986Z,4
2017-05-16T07:33:24.283Z,12
2017-05-16T07:34:36.588Z,12
2017-05-16T07:35:48.890Z,8
2017-05-16T07:37:01.677Z,4
2017-05-16T07:38:14.460Z,4
2017-05-16T07:39:26.768Z,12
2017-05-16T07:40:39.070Z,12
2017-05-16T07:41:51.849Z,12
2017-05-16T07:43:04.145Z,16
2017-05-16T07:44:15.966Z,16
2017-05-16T07:45:28.279Z,12
2017-05-16T07:46:40.145Z,4
2017-05-16T07:47:52.928Z,12
2017-05-16T07:49:06.007Z,12
2017-05-16T07:50:17.831Z,12
2017-05-16T07:51:30.610Z,12
2017-05-16T07:52:42.909Z,8
2017-05-16T07:53:55.215Z,4
2017-05-16T07:55:08.301Z,4
2017-05-16T07:56:21.077Z,4
2017-05-16T07:57:33.374Z,12
2017-05-16T07:58:46.156Z,16
2017-05-16T07:59:58.944Z,12
2017-05-16T08:01:11.730Z,12
2017-05-16T08:02:24.027Z,4
2017-05-16T08:03:36.812Z,4
2017-05-16T08:04:49.605Z,4
2017-05-16T08:06:01.907Z,12
2017-05-16T08:07:14.688Z,12
2017-05-16T08:08:27.469Z,12
2017-05-16T08:09:40.269Z,4
2017-05-16T08:10:53.252Z,12
2017-05-16T08:12:06.033Z,12
2017-05-16T08:13:18.820Z,12
2017-05-16T08:14:31.607Z,12
2017-05-16T08:15:44.446Z,8
2017-05-16T08:16:57.435Z,4
2017-05-16T08:18:09.745Z,4
2017-05-16T08:19:22.052Z,4
2017-05-16T08:20:34.417Z,16
2017-05-16T08:21:47.209Z,12
2017-05-16T08:22:59.990Z,12
2017-05-16T08:24:12.290Z,12
2017-05-16T08:25:25.086Z,12
2017-05-16T08:26:37.872Z,8
2017-05-16T08:27:50.953Z,12
2017-05-16T08:29:03.783Z,12
2017-05-16T08:30:16.091Z,12
2017-05-16T08:31:28.390Z,4
2017-05-16T08:32:55.250Z,12
2017-05-16T08:34:08.033Z,4
2017-05-16T08:35:20.826Z,4
2017-05-16T08:36:33.131Z,12
2017-05-16T08:37:46.127Z,16
2017-05-16T08:38:58.431Z,16
2017-05-16T08:40:11.215Z,12
2017-05-16T08:41:24.004Z,4
2017-05-16T08:42:36.792Z,4
2017-05-16T08:43:49.777Z,12
2017-05-16T08:45:02.556Z,12
2017-05-16T08:46:15.340Z,12
2017-05-16T08:47:28.131Z,8
2017-05-16T08:48:40.431Z,12
2017-05-16T08:49:53.220Z,12
2017-05-16T08:51:06.019Z,12
2017-05-16T08:52:18.317Z,4
2017-05-16T08:53:31.105Z,4
2017-05-16T08:54:43.616Z,12
2017-05-16T08:55:56.400Z,12
2017-05-16T08:57:08.705Z,4
2017-05-16T08:58:21.483Z,4
2017-05-16T08:59:33.788Z,12
2017-05-16T09:00:46.085Z,12
2017-05-16T09:01:58.884Z,12
2017-05-16T09:03:10.227Z,12
2017-05-16T09:04:22.528Z,12
2017-05-16T09:05:35.615Z,12
2017-05-16T09:06:47.918Z,4
2017-05-16T09:08:00.234Z,4
2017-05-16T09:09:12.539Z,12
2017-05-16T09:10:25.320Z,8
2017-05-16T09:11:38.302Z,12
2017-05-16T09:12:50.609Z,12
2017-05-16T09:14:03.389Z,12
2017-05-16T09:15:15.686Z,12
2017-05-16T09:16:28.770Z,12
2017-05-16T09:17:41.073Z,8
2017-05-16T09:18:53.859Z,12
2017-05-16T09:20:06.159Z,12
2017-05-16T09:21:18.941Z,16
2017-05-16T09:22:31.732Z,16
2017-05-16T09:23:44.524Z,12
2017-05-16T09:24:56.831Z,4
2017-05-16T09:26:09.134Z,16
2017-05-16T09:27:21.926Z,16
2017-05-16T09:28:34.713Z,16
2017-05-16T09:29:47.496Z,16
2017-05-16T09:31:00.270Z,8
2017-05-16T09:32:12.573Z,8
2017-05-16T09:33:25.565Z,20
2017-05-16T09:34:38.960Z,24
2017-05-16T09:35:51.744Z,20
2017-05-16T09:37:04.527Z,16
2017-05-16T09:38:16.348Z,12
2017-05-16T09:39:29.137Z,12
2017-05-16T09:40:41.435Z,16
2017-05-16T09:41:53.737Z,16
2017-05-16T09:43:06.540Z,16
2017-05-16T09:44:19.317Z,16
2017-05-16T09:45:32.197Z,20
2017-05-16T09:46:45.100Z,20
2017-05-16T09:47:57.516Z,24
2017-05-16T09:49:09.637Z,24
2017-05-16T09:50:21.552Z,28
2017-05-16T09:51:33.966Z,28
2017-05-16T09:52:46.879Z,32
2017-05-16T09:53:59.779Z,28
2017-05-16T09:55:12.390Z,32
2017-05-16T09:56:24.793Z,32
2017-05-16T09:57:37.708Z,32
2017-05-16T09:58:50.611Z,36
2017-05-16T10:00:03.508Z,36
2017-05-16T10:01:15.422Z,40
2017-05-16T10:02:28.315Z,40
2017-05-16T10:03:41.221Z,44
2017-05-16T10:04:54.118Z,48
2017-05-16T10:06:07.022Z,52
2017-05-16T10:07:18.939Z,56
2017-05-16T10:08:31.841Z,60
2017-05-16T10:09:44.742Z,60
2017-05-16T10:10:57.642Z,64
2017-05-16T10:12:10.062Z,68
2017-05-16T10:13:22.476Z,68
2017-05-16T10:14:34.395Z,68
2017-05-16T10:15:46.804Z,76
2017-05-16T10:16:59.699Z,84
2017-05-16T10:18:12.602Z,92
2017-05-16T10:19:25.516Z,96
2017-05-16T10:20:37.928Z,104
2017-05-16T10:21:50.533Z,112
2017-05-16T10:23:03.437Z,112
2017-05-16T10:24:15.854Z,112
2017-05-16T10:25:28.750Z,120
2017-05-16T10:26:41.651Z,116
2017-05-16T10:27:54.546Z,116
2017-05-16T10:29:06.953Z,120
2017-05-16T10:30:19.371Z,120
2017-05-16T10:31:32.269Z,124
2017-05-16T10:32:45.467Z,128
2017-05-16T10:33:57.881Z,128
2017-05-16T10:35:10.290Z,128
2017-05-16T10:36:22.689Z,128
2017-05-16T10:37:35.092Z,132
2017-05-16T10:38:47.290Z,132
2017-05-16T10:39:59.704Z,136
2017-05-16T10:41:12.118Z,140
2017-05-16T10:42:25.019Z,144
2017-05-16T10:43:37.629Z,148
2017-05-16T10:44:50.529Z,156
2017-05-16T10:46:03.426Z,156
2017-05-16T10:47:16.328Z,156
2017-05-16T10:48:29.225Z,160
2017-05-16T10:49:42.322Z,164
2017-05-16T10:50:54.246Z,168
2017-05-16T10:52:06.658Z,180
2017-05-16T10:53:19.064Z,192
2017-05-16T10:54:31.961Z,196
2017-05-16T10:55:44.860Z,200
2017-05-16T10:56:57.271Z,212
2017-05-16T10:58:10.172Z,220
2017-05-16T10:59:22.637Z,228
2017-05-16T11:00:35.731Z,244
2017-05-16T11:01:48.622Z,248
2017-05-16T11:03:01.524Z,256
2017-05-16T11:04:13.942Z,276
2017-05-16T11:05:26.656Z,268
2017-05-16T11:06:39.557Z,264
2017-05-16T11:07:51.970Z,272
2017-05-16T11:09:04.379Z,276
2017-05-16T11:10:16.294Z,296
2017-05-16T11:11:29.394Z,324
2017-05-16T11:12:41.310Z,348
2017-05-16T11:13:54.209Z,388
2017-05-16T11:15:06.149Z,384
2017-05-16T11:16:18.579Z,404
2017-05-16T11:17:31.498Z,408
2017-05-16T11:18:44.418Z,404
2017-05-16T11:19:56.845Z,424
2017-05-16T11:21:09.765Z,436
2017-05-16T11:22:22.191Z,456
2017-05-16T11:23:35.118Z,480
2017-05-16T11:24:48.040Z,544
2017-05-16T11:25:59.976Z,544
2017-05-16T11:27:12.601Z,536
2017-05-16T11:28:25.517Z,900
2017-05-16T11:29:38.438Z,512
2017-05-16T11:30:50.871Z,716
2017-05-16T11:32:03.791Z,512
2017-05-16T11:33:16.224Z,576
2017-05-16T11:34:29.138Z,1464
2017-05-16T11:35:41.564Z,568
2017-05-16T11:36:53.498Z,536
2017-05-16T11:38:06.412Z,1620
2017-05-16T11:39:18.900Z,496
2017-05-16T11:40:31.817Z,692
2017-05-16T11:41:44.244Z,544
2017-05-16T11:42:57.167Z,516
2017-05-16T11:44:10.294Z,628
2017-05-16T11:45:22.717Z,808
2017-05-16T11:46:35.634Z,488
2017-05-16T11:47:48.552Z,500
2017-05-16T11:49:01.669Z,524
2017-05-16T11:50:13.650Z,524
2017-05-16T11:51:26.575Z,1248
2017-05-16T11:52:39.546Z,504
2017-05-16T11:53:52.464Z,504
2017-05-16T11:55:05.582Z,540
2017-05-16T11:56:18.495Z,564
2017-05-16T11:57:31.413Z,568
2017-05-16T11:58:43.841Z,572
2017-05-16T11:59:55.782Z,584
2017-05-16T12:01:08.697Z,608
2017-05-16T12:02:21.617Z,628
2017-05-16T12:03:34.053Z,612
2017-05-16T12:04:45.997Z,632
2017-05-16T12:05:58.727Z,624
2017-05-16T12:07:11.646Z,640
2017-05-16T12:08:24.563Z,656
2017-05-16T12:09:37.496Z,676
2017-05-16T12:10:50.457Z,680
2017-05-16T12:12:02.885Z,680
2017-05-16T12:13:15.313Z,696
2017-05-16T12:14:27.737Z,712
2017-05-16T12:15:40.181Z,712
2017-05-16T12:16:52.910Z,864
2017-05-16T12:18:05.336Z,680
2017-05-16T12:19:18.259Z,664
2017-05-16T12:20:31.177Z,672
2017-05-16T12:21:43.608Z,664
2017-05-16T12:22:56.525Z,692
2017-05-16T12:24:08.948Z,740
2017-05-16T12:25:21.865Z,1924
2017-05-16T12:26:34.778Z,1176
2017-05-16T12:27:47.998Z,940
2017-05-16T12:29:00.963Z,1244
2017-05-16T12:30:13.886Z,1072
2017-05-16T12:31:26.813Z,940
2017-05-16T12:32:39.934Z,1008
2017-05-16T12:33:52.361Z,960
2017-05-16T12:35:04.296Z,912
2017-05-16T12:36:17.213Z,932
2017-05-16T12:37:29.640Z,992
2017-05-16T12:38:42.755Z,968
2017-05-16T12:39:55.195Z,1096
2017-05-16T12:41:08.114Z,864
2017-05-16T12:42:21.035Z,768
2017-05-16T12:43:33.469Z,744
2017-05-16T12:44:45.903Z,748
2017-05-16T12:45:58.820Z,804
2017-05-16T12:47:11.750Z,816
2017-05-16T12:48:24.664Z,760
2017-05-16T12:49:37.101Z,780
2017-05-16T12:50:50.013Z,756
2017-05-16T12:52:02.935Z,728
2017-05-16T12:53:15.365Z,700
2017-05-16T12:54:28.642Z,676
2017-05-16T12:55:41.559Z,764
2017-05-16T12:56:54.474Z,700
2017-05-16T12:58:07.394Z,716
2017-05-16T12:59:19.834Z,792
2017-05-16T13:00:32.751Z,908
2017-05-16T13:01:45.670Z,928
2017-05-16T13:02:58.100Z,928
2017-05-16T13:04:10.036Z,1064
2017-05-16T13:05:22.468Z,716
2017-05-16T13:06:35.385Z,1180
2017-05-16T13:07:48.304Z,864
2017-05-16T13:09:01.225Z,824
2017-05-16T13:10:13.652Z,804
2017-05-16T13:11:26.137Z,852
2017-05-16T13:12:38.565Z,900
2017-05-16T13:13:51.491Z,968
2017-05-16T13:15:04.620Z,980
2017-05-16T13:16:17.535Z,928
2017-05-16T13:17:29.473Z,936
2017-05-16T13:18:42.410Z,936
2017-05-16T13:19:55.331Z,828
2017-05-16T13:21:08.452Z,860
2017-05-16T13:22:21.369Z,892
2017-05-16T13:23:33.309Z,820
2017-05-16T13:24:46.226Z,740
2017-05-16T13:25:59.148Z,748
2017-05-16T13:27:11.599Z,772
2017-05-16T13:28:24.521Z,800
2017-05-16T13:29:37.474Z,812
2017-05-16T13:30:50.429Z,764
2017-05-16T13:32:03.354Z,772
2017-05-16T13:33:15.826Z,848
2017-05-16T13:34:28.721Z,852
2017-05-16T13:35:41.620Z,900
2017-05-16T13:36:54.517Z,968
2017-05-16T13:38:06.926Z,996
2017-05-16T13:39:19.847Z,1144
2017-05-16T13:40:32.818Z,1832
2017-05-16T13:41:45.425Z,884
2017-05-16T13:42:58.788Z,828
2017-05-16T13:44:10.795Z,848
2017-05-16T13:45:23.846Z,780
2017-05-16T13:46:36.812Z,804
2017-05-16T13:47:50.064Z,832
2017-05-16T13:49:03.067Z,804
2017-05-16T13:50:15.483Z,812
2017-05-16T13:51:28.520Z,1064
2017-05-16T13:52:41.517Z,1024
2017-05-16T13:53:54.493Z,1748
2017-05-16T13:55:07.534Z,924
2017-05-16T13:56:19.995Z,944
2017-05-16T13:57:32.595Z,1068
2017-05-16T13:58:45.746Z,936
2017-05-16T13:59:58.911Z,1024
2017-05-16T14:01:11.888Z,2092
2017-05-16T14:02:24.923Z,988
2017-05-16T14:03:37.934Z,964
2017-05-16T14:04:51.043Z,964
2017-05-16T14:06:04.073Z,980
2017-05-16T14:07:15.631Z,1024
2017-05-16T14:08:28.655Z,1164
2017-05-16T14:09:41.273Z,932
2017-05-16T14:10:54.185Z,896
2017-05-16T14:12:07.084Z,936
2017-05-16T14:13:19.496Z,952
2017-05-16T14:14:32.407Z,1048
2017-05-16T14:15:45.327Z,1012
2017-05-16T14:16:57.760Z,948
2017-05-16T14:18:10.193Z,1052
2017-05-16T14:19:22.631Z,1072
2017-05-16T14:20:35.900Z,1240
2017-05-16T14:21:48.820Z,1216
2017-05-16T14:23:01.252Z,868
2017-05-16T14:24:13.205Z,824
2017-05-16T14:25:26.127Z,896
2017-05-16T14:26:39.058Z,936
2017-05-16T14:27:51.488Z,916
2017-05-16T14:29:03.426Z,1072
2017-05-16T14:30:16.363Z,1028
2017-05-16T14:31:29.431Z,1652
2017-05-16T14:32:41.862Z,1172
2017-05-16T14:33:54.782Z,1544
2017-05-16T14:35:07.750Z,2312
2017-05-16T14:36:20.668Z,920
2017-05-16T14:37:33.591Z,880
2017-05-16T14:38:46.509Z,816
2017-05-16T14:39:59.430Z,828
2017-05-16T14:41:12.356Z,876
2017-05-16T14:42:25.273Z,1972
2017-05-16T14:43:38.199Z,844
2017-05-16T14:44:51.116Z,788
2017-05-16T14:46:03.052Z,780
2017-05-16T14:47:15.484Z,928
2017-05-16T14:48:28.600Z,1476
2017-05-16T14:49:41.529Z,1736
2017-05-16T14:50:54.454Z,1052
2017-05-16T14:52:07.372Z,1944
2017-05-16T14:53:20.290Z,1568
2017-05-16T14:54:32.728Z,1748
2017-05-16T14:55:45.649Z,1252
2017-05-16T14:56:58.571Z,772
2017-05-16T14:58:11.051Z,712
2017-05-16T14:59:23.973Z,716
2017-05-16T15:00:36.790Z,932
2017-05-16T15:01:49.570Z,732
2017-05-16T15:03:01.872Z,748
2017-05-16T15:04:14.652Z,1616
2017-05-16T15:05:27.433Z,1524
2017-05-16T15:06:40.215Z,952
2017-05-16T15:07:52.520Z,1448
2017-05-16T15:09:05.302Z,1400
2017-05-16T15:10:18.089Z,912
2017-05-16T15:11:30.868Z,1092
2017-05-16T15:12:43.650Z,660
2017-05-16T15:13:56.440Z,652
2017-05-16T15:15:09.227Z,704
2017-05-16T15:16:22.012Z,832
2017-05-16T15:17:34.310Z,1164
2017-05-16T15:18:46.624Z,764
2017-05-16T15:19:59.407Z,1328
2017-05-16T15:21:11.906Z,1324
2017-05-16T15:22:24.688Z,688
2017-05-16T15:23:37.003Z,1232
2017-05-16T15:24:49.785Z,1220
2017-05-16T15:26:02.565Z,1152
2017-05-16T15:27:15.349Z,760
2017-05-16T15:28:28.140Z,616
2017-05-16T15:29:40.924Z,496
2017-05-16T15:30:53.226Z,528
2017-05-16T15:32:05.727Z,988
2017-05-16T15:33:18.513Z,1060
2017-05-16T15:34:31.299Z,1052
2017-05-16T15:35:44.087Z,980
2017-05-16T15:36:56.388Z,956
2017-05-16T15:38:08.690Z,1040
2017-05-16T15:39:20.985Z,996
2017-05-16T15:40:33.294Z,992
2017-05-16T15:41:45.592Z,692
2017-05-16T15:42:58.373Z,952
2017-05-16T15:44:10.680Z,888
2017-05-16T15:45:23.465Z,576
2017-05-16T15:46:34.811Z,652
2017-05-16T15:47:47.794Z,448
2017-05-16T15:49:00.578Z,464
2017-05-16T15:50:13.365Z,480
2017-05-16T15:51:26.150Z,628
2017-05-16T15:52:38.940Z,436
2017-05-16T15:53:51.925Z,440
2017-05-16T15:55:04.233Z,456
2017-05-16T15:56:17.036Z,644
2017-05-16T15:57:29.819Z,600
2017-05-16T15:58:42.606Z,700
2017-05-16T15:59:55.382Z,640
2017-05-16T16:01:07.205Z,732
2017-05-16T16:02:19.021Z,692
2017-05-16T16:03:31.321Z,472
2017-05-16T16:04:43.622Z,480
2017-05-16T16:05:56.403Z,476
2017-05-16T16:07:08.704Z,600
2017-05-16T16:08:21.529Z,736
2017-05-16T16:09:33.830Z,604
2017-05-16T16:10:46.808Z,612
2017-05-16T16:11:59.590Z,512
2017-05-16T16:13:11.892Z,476
2017-05-16T16:14:24.673Z,460
2017-05-16T16:15:37.461Z,496
2017-05-16T16:16:50.241Z,720
2017-05-16T16:18:03.022Z,692
2017-05-16T16:19:15.323Z,508
2017-05-16T16:20:28.108Z,604
2017-05-16T16:21:41.091Z,688
2017-05-16T16:22:53.880Z,720
2017-05-16T16:24:06.662Z,748
2017-05-16T16:25:19.444Z,752
2017-05-16T16:26:31.746Z,708
2017-05-16T16:27:44.047Z,488
2017-05-16T16:28:56.829Z,456
2017-05-16T16:30:09.223Z,484
2017-05-16T16:31:22.141Z,504
2017-05-16T16:32:34.581Z,480
2017-05-16T16:33:47.501Z,452
2017-05-16T16:35:00.420Z,452
2017-05-16T16:36:13.348Z,740
2017-05-16T16:37:26.269Z,772
2017-05-16T16:38:39.191Z,744
2017-05-16T16:39:52.112Z,652
2017-05-16T16:41:05.029Z,812
2017-05-16T16:42:16.473Z,836
2017-05-16T16:43:28.901Z,820
2017-05-16T16:44:41.827Z,820
2017-05-16T16:45:54.746Z,724
2017-05-16T16:47:07.183Z,644
2017-05-16T16:48:20.109Z,496
2017-05-16T16:49:33.091Z,484
2017-05-16T16:50:45.652Z,504
2017-05-16T16:51:58.654Z,436
2017-05-16T16:53:10.663Z,452
2017-05-16T16:54:23.666Z,580
2017-05-16T16:55:36.168Z,536
2017-05-16T16:56:49.171Z,520
2017-05-16T16:58:02.175Z,704
2017-05-16T16:59:15.179Z,696
2017-05-16T17:00:27.683Z,684
2017-05-16T17:01:40.684Z,636
2017-05-16T17:02:53.194Z,488
2017-05-16T17:04:06.192Z,440
2017-05-16T17:05:19.189Z,416
2017-05-16T17:06:31.702Z,340